Aérodrome :
LOGIN :

S'inscrire | Disclaimer

   EN    FR    IT 

 










Légende :    VFR   VFR Marginal   IFR   IFR Intensif   IFR Très Intensif
Visi : 
Plafond : 
>= 8 km
>= 3000ft
5 à 8 km
1000 à 3000 ft
1500m à 5 km
500 à 1000 ft
800 à 1500m
200 à 500 ft
< 800m
< 200 ft
Symboles :   Orages  Brouillard  Fortes neiges  Fortes précipitations  Vent > 20 kt
SIGMETs :   Divers  Orages  Givrage  Turbulence  Onde Orograph.  Cendres Volcan.







- Altitude de l'aérodrome : -15 ft
- Code IATA : RTM


EHRD - Rotterdam Zestienhoven

DERNIER METAR :
  • 141455Z AUTO 26005KT 240V300 9999 FEW017 SCT022 BKN033 19/17 Q1016 REDZ NOSIG

METARs EXPIRÉS :
  • 141425Z AUTO 27005KT 230V300 9000 +DZ FEW017 BKN022 OVC025 19/17 Q1016 NOSIG
  • 141355Z AUTO 27007KT 240V320 9999 FEW017 BKN030 OVC034 19/16 Q1016 NOSIG
  • 141325Z AUTO 30010KT 260V350 9999 FEW018 BKN030 OVC045 20/16 Q1016 NOSIG
  • 141255Z AUTO 30008KT 250V350 9999 FEW018 SCT021 BKN025 20/16 Q1015 NOSIG
  • 141225Z AUTO 29008KT 230V330 9999 SCT020 BKN023 OVC026 20/15 Q1015 NOSIG

TAF TAF EHRD
Valide du 14 à 12h jusqu'au 15 à 18h UTC


141036Z 1412/1518 28013KT 9999 SCT025
BECMG 1418/1421 22007KT CAVOK
PROB40 1502/1507 5000 BR BKN005
BECMG 1508/1511 24013KT SCT020
Pas de NOTAMs connus pour ce terrain.



MET'MAP, la Météo Aéronautique d'un coup d'oeil ! - Copyright ORBIFLY Décembre 2007 - Disclaimer

ORBIFLY MET'MAP TEAM :

Programmation & Développement : Alexandra Zaïnal
Conception & Développement : Baudouin d'Aumeries
Co-Programmation & Développement : Marc-Olivier Méhu
Soutien technique & logistique : Manuel Goepfert

Contact : metmap@orbifly.com




SOURCES & CREDITS :

   NOAA